sensor_id;sensor_type;location;lat;lon;timestamp;pressure;altitude;pressure_sealevel;temperature;humidity
39105;BME280;46464;51.154;13.812;2023-11-19T11:18:03;52513.41;;;-146.96;100.00
39105;BME280;46464;51.154;13.812;2023-11-19T11:20:30;52491.00;;;-146.96;100.00
39105;BME280;46464;51.154;13.812;2023-11-19T11:28:41;52466.59;;;-146.96;100.00
39105;BME280;46464;51.154;13.812;2023-11-19T11:31:22;52499.16;;;-146.96;100.00
39105;BME280;46464;51.154;13.812;2023-11-19T11:39:43;52460.50;;;-146.96;100.00
39105;BME280;46464;51.154;13.812;2023-11-19T11:50:26;52425.91;;;-146.96;100.00
39105;BME280;46464;51.154;13.812;2023-11-19T11:58:19;52419.78;;;-146.96;100.00
39105;BME280;46464;51.154;13.812;2023-11-19T12:00:48;52425.91;;;-146.96;100.00
39105;BME280;46464;51.154;13.812;2023-11-19T12:03:15;52415.72;;;-146.96;99.51
39105;BME280;46464;51.154;13.812;2023-11-19T12:05:46;52405.56;;;-146.96;97.63
39105;BME280;46464;51.154;13.812;2023-11-19T12:08:15;52411.66;;;-146.96;97.20
39105;BME280;46464;51.154;13.812;2023-11-19T12:10:52;52432.00;;;-146.96;96.38
39105;BME280;46464;51.154;13.812;2023-11-19T12:13:20;52434.03;;;-146.96;96.94
39105;BME280;46464;51.154;13.812;2023-11-19T12:20:51;52458.44;;;-146.96;97.28
39105;BME280;46464;51.154;13.812;2023-11-19T12:23:18;52458.44;;;-146.96;97.85
39105;BME280;46464;51.154;13.812;2023-11-19T12:25:46;52436.06;;;-146.96;95.75
39105;BME280;46464;51.154;13.812;2023-11-19T12:28:14;52432.00;;;-146.96;98.22
39105;BME280;46464;51.154;13.812;2023-11-19T12:30:49;52407.59;;;-146.96;99.07
39105;BME280;46464;51.154;13.812;2023-11-19T12:33:15;52442.19;;;-146.96;100.00
39105;BME280;46464;51.154;13.812;2023-11-19T12:35:44;52425.91;;;-146.96;100.00
39105;BME280;46464;51.154;13.812;2023-11-19T12:38:21;52474.72;;;-146.96;100.00
39105;BME280;46464;51.154;13.812;2023-11-19T12:41:08;52476.75;;;-146.96;100.00
39105;BME280;46464;51.154;13.812;2023-11-19T12:43:39;52484.91;;;-146.96;100.00
39105;BME280;46464;51.154;13.812;2023-11-19T12:46:21;52525.59;;;-146.96;100.00
39105;BME280;46464;51.154;13.812;2023-11-19T12:48:49;52533.75;;;-146.96;100.00
39105;BME280;46464;51.154;13.812;2023-11-19T12:51:16;52507.28;;;-146.96;100.00
39105;BME280;46464;51.154;13.812;2023-11-19T12:53:50;52521.53;;;-146.96;100.00
39105;BME280;46464;51.154;13.812;2023-11-19T12:56:19;52509.31;;;-146.96;100.00
39105;BME280;46464;51.154;13.812;2023-11-19T12:58:46;52527.63;;;-146.96;100.00
39105;BME280;46464;51.154;13.812;2023-11-19T13:01:16;52547.97;;;-146.96;100.00
39105;BME280;46464;51.154;13.812;2023-11-19T13:03:44;52519.50;;;-146.96;100.00
39105;BME280;46464;51.154;13.812;2023-11-19T13:06:13;52576.47;;;-146.96;100.00
39105;BME280;46464;51.154;13.812;2023-11-19T13:08:47;52556.13;;;-146.96;100.00
39105;BME280;46464;51.154;13.812;2023-11-19T13:11:34;52576.47;;;-146.96;100.00
39105;BME280;46464;51.154;13.812;2023-11-19T13:14:04;52527.63;;;-146.96;100.00
39105;BME280;46464;51.154;13.812;2023-11-19T13:16:32;52564.25;;;-146.96;100.00
39105;BME280;46464;51.154;13.812;2023-11-19T13:18:59;52566.31;;;-146.96;100.00
39105;BME280;46464;51.154;13.812;2023-11-19T13:21:29;52543.91;;;-146.96;100.00
39105;BME280;46464;51.154;13.812;2023-11-19T13:23:57;52556.13;;;-146.96;100.00
39105;BME280;46464;51.154;13.812;2023-11-19T13:26:23;52556.13;;;-146.96;100.00
39105;BME280;46464;51.154;13.812;2023-11-19T13:28:50;52550.03;;;-146.96;100.00
39105;BME280;46464;51.154;13.812;2023-11-19T13:31:17;52543.91;;;-146.96;100.00
39105;BME280;46464;51.154;13.812;2023-11-19T13:33:45;52519.50;;;-146.96;100.00
39105;BME280;46464;51.154;13.812;2023-11-19T13:36:15;52513.41;;;-146.96;100.00
39105;BME280;46464;51.154;13.812;2023-11-19T13:38:47;52523.56;;;-146.96;100.00
39105;BME280;46464;51.154;13.812;2023-11-19T13:41:14;52503.22;;;-146.96;100.00
39105;BME280;46464;51.154;13.812;2023-11-19T13:43:41;52541.88;;;-146.96;100.00
39105;BME280;46464;51.154;13.812;2023-11-19T13:46:07;52507.28;;;-146.96;100.00
39105;BME280;46464;51.154;13.812;2023-11-19T13:48:36;52501.19;;;-146.96;100.00
39105;BME280;46464;51.154;13.812;2023-11-19T13:51:04;52527.63;;;-146.96;100.00
39105;BME280;46464;51.154;13.812;2023-11-19T13:53:31;52456.41;;;-146.96;100.00
39105;BME280;46464;51.154;13.812;2023-11-19T13:56:17;52476.75;;;-146.96;100.00
39105;BME280;46464;51.154;13.812;2023-11-19T13:58:44;52466.59;;;-146.96;100.00
39105;BME280;46464;51.154;13.812;2023-11-19T14:01:10;52452.34;;;-146.96;100.00
39105;BME280;46464;51.154;13.812;2023-11-19T14:03:40;52482.88;;;-146.96;100.00
39105;BME280;46464;51.154;13.812;2023-11-19T14:06:08;52499.16;;;-146.96;100.00
39105;BME280;46464;51.154;13.812;2023-11-19T14:08:35;52476.75;;;-146.96;100.00
39105;BME280;46464;51.154;13.812;2023-11-19T14:11:02;52521.53;;;-146.96;100.00
39105;BME280;46464;51.154;13.812;2023-11-19T14:13:29;52513.41;;;-146.96;100.00
39105;BME280;46464;51.154;13.812;2023-11-19T14:15:56;52486.94;;;-146.96;100.00
39105;BME280;46464;51.154;13.812;2023-11-19T14:18:23;52478.81;;;-146.96;100.00
39105;BME280;46464;51.154;13.812;2023-11-19T14:20:49;52448.28;;;-146.96;100.00
39105;BME280;46464;51.154;13.812;2023-11-19T14:23:17;52507.28;;;-146.96;100.00
39105;BME280;46464;51.154;13.812;2023-11-19T14:25:43;52488.97;;;-146.96;100.00
39105;BME280;46464;51.154;13.812;2023-11-19T14:28:10;52507.28;;;-146.96;100.00
39105;BME280;46464;51.154;13.812;2023-11-19T14:30:37;52501.19;;;-146.96;100.00
39105;BME280;46464;51.154;13.812;2023-11-19T14:33:05;52501.19;;;-146.96;100.00
39105;BME280;46464;51.154;13.812;2023-11-19T14:35:32;52505.25;;;-146.96;100.00
39105;BME280;46464;51.154;13.812;2023-11-19T14:38:00;52470.66;;;-146.96;100.00
39105;BME280;46464;51.154;13.812;2023-11-19T14:40:26;52486.94;;;-146.96;100.00
39105;BME280;46464;51.154;13.812;2023-11-19T14:42:56;52468.63;;;-146.96;100.00
39105;BME280;46464;51.154;13.812;2023-11-19T14:45:22;52466.59;;;-146.96;100.00
39105;BME280;46464;51.154;13.812;2023-11-19T14:47:49;52478.81;;;-146.96;100.00
39105;BME280;46464;51.154;13.812;2023-11-19T14:50:16;52456.41;;;-146.96;100.00
39105;BME280;46464;51.154;13.812;2023-11-19T14:52:43;52472.69;;;-146.96;100.00
39105;BME280;46464;51.154;13.812;2023-11-19T14:55:09;52464.56;;;-146.96;100.00
39105;BME280;46464;51.154;13.812;2023-11-19T14:57:38;52480.84;;;-146.96;100.00
39105;BME280;46464;51.154;13.812;2023-11-19T15:00:06;52474.72;;;-146.96;100.00
39105;BME280;46464;51.154;13.812;2023-11-19T15:02:40;52507.28;;;-146.96;100.00
39105;BME280;46464;51.154;13.812;2023-11-19T15:05:10;52486.94;;;-146.96;100.00
39105;BME280;46464;51.154;13.812;2023-11-19T15:07:37;52505.25;;;-146.96;100.00
39105;BME280;46464;51.154;13.812;2023-11-19T15:10:05;52446.25;;;-146.96;100.00
39105;BME280;46464;51.154;13.812;2023-11-19T15:12:37;52476.75;;;-146.96;100.00
39105;BME280;46464;51.154;13.812;2023-11-19T15:15:07;52488.97;;;-146.96;100.00
39105;BME280;46464;51.154;13.812;2023-11-19T15:17:36;52472.69;;;-146.96;100.00
39105;BME280;46464;51.154;13.812;2023-11-19T15:20:03;52493.03;;;-146.96;100.00
39105;BME280;46464;51.154;13.812;2023-11-19T15:22:31;52464.56;;;-146.96;100.00
39105;BME280;46464;51.154;13.812;2023-11-19T15:24:58;52476.75;;;-146.96;100.00
39105;BME280;46464;51.154;13.812;2023-11-19T15:27:24;52472.69;;;-146.96;99.67
39105;BME280;46464;51.154;13.812;2023-11-19T15:30:03;52452.34;;;-146.96;99.67
39105;BME280;46464;51.154;13.812;2023-11-19T15:32:32;52438.09;;;-146.96;97.63
39105;BME280;46464;51.154;13.812;2023-11-19T15:35:00;52452.34;;;-146.96;100.00
39105;BME280;46464;51.154;13.812;2023-11-19T15:37:31;52480.84;;;-146.96;100.00
39105;BME280;46464;51.154;13.812;2023-11-19T15:39:59;52478.81;;;-146.96;99.95
39105;BME280;46464;51.154;13.812;2023-11-19T15:42:32;52456.41;;;-146.96;98.38
39105;BME280;46464;51.154;13.812;2023-11-19T15:44:58;52468.63;;;-146.96;98.19
39105;BME280;46464;51.154;13.812;2023-11-19T15:47:25;52452.34;;;-146.96;96.25
39105;BME280;46464;51.154;13.812;2023-11-19T15:49:52;52468.63;;;-146.96;95.15
39105;BME280;46464;51.154;13.812;2023-11-19T15:52:19;52429.97;;;-146.96;93.81
39105;BME280;46464;51.154;13.812;2023-11-19T15:54:45;52497.13;;;-146.96;96.85
39105;BME280;46464;51.154;13.812;2023-11-19T15:57:14;52456.41;;;-146.96;97.32
39105;BME280;46464;51.154;13.812;2023-11-19T15:59:41;52458.44;;;-146.96;96.03
39105;BME280;46464;51.154;13.812;2023-11-19T16:02:08;52456.41;;;-146.96;96.78
39105;BME280;46464;51.154;13.812;2023-11-19T16:04:36;52478.81;;;-146.96;97.90
39105;BME280;46464;51.154;13.812;2023-11-19T16:07:03;52460.50;;;-146.96;97.30
39105;BME280;46464;51.154;13.812;2023-11-19T16:09:32;52476.75;;;-146.96;96.50
39105;BME280;46464;51.154;13.812;2023-11-19T16:11:59;52440.13;;;-146.96;95.95
39105;BME280;46464;51.154;13.812;2023-11-19T16:14:25;52482.88;;;-146.96;95.68
39105;BME280;46464;51.154;13.812;2023-11-19T16:16:52;52468.63;;;-146.96;94.27
39105;BME280;46464;51.154;13.812;2023-11-19T16:19:19;52482.88;;;-146.96;94.76
39105;BME280;46464;51.154;13.812;2023-11-19T16:21:46;52474.72;;;-146.96;93.22
39105;BME280;46464;51.154;13.812;2023-11-19T16:24:13;52468.63;;;-146.96;92.56
39105;BME280;46464;51.154;13.812;2023-11-19T16:26:41;52486.94;;;-146.96;89.43
39105;BME280;46464;51.154;13.812;2023-11-19T16:29:07;52480.84;;;-146.96;88.02
39105;BME280;46464;51.154;13.812;2023-11-19T16:31:34;52493.03;;;-146.96;85.93
39105;BME280;46464;51.154;13.812;2023-11-19T16:34:01;52488.97;;;-146.96;87.30
39105;BME280;46464;51.154;13.812;2023-11-19T16:36:28;52476.75;;;-146.96;86.85
39105;BME280;46464;51.154;13.812;2023-11-19T16:38:55;52507.28;;;-146.96;87.18
39105;BME280;46464;51.154;13.812;2023-11-19T16:41:41;52456.41;;;-146.96;86.68
39105;BME280;46464;51.154;13.812;2023-11-19T16:44:09;52505.25;;;-146.96;86.38
39105;BME280;46464;51.154;13.812;2023-11-19T16:46:37;52468.63;;;-146.96;86.28
39105;BME280;46464;51.154;13.812;2023-11-19T16:49:04;52497.13;;;-146.96;86.33
39105;BME280;46464;51.154;13.812;2023-11-19T16:51:32;52482.88;;;-146.96;85.75
39105;BME280;46464;51.154;13.812;2023-11-19T16:53:58;52440.13;;;-146.96;85.92
39105;BME280;46464;51.154;13.812;2023-11-19T16:56:27;52456.41;;;-146.96;82.74
39105;BME280;46464;51.154;13.812;2023-11-19T16:58:53;52452.34;;;-146.96;81.98
39105;BME280;46464;51.154;13.812;2023-11-19T17:01:21;52454.38;;;-146.96;81.25
39105;BME280;46464;51.154;13.812;2023-11-19T17:03:47;52442.19;;;-146.96;80.82
39105;BME280;46464;51.154;13.812;2023-11-19T17:06:15;52417.75;;;-146.96;80.35
39105;BME280;46464;51.154;13.812;2023-11-19T17:08:42;52401.47;;;-146.96;79.90
39105;BME280;46464;51.154;13.812;2023-11-19T17:11:08;52423.88;;;-146.96;80.14
39105;BME280;46464;51.154;13.812;2023-11-19T17:13:35;52434.03;;;-146.96;79.72
39105;BME280;46464;51.154;13.812;2023-11-19T17:16:02;52446.25;;;-146.96;80.27
39105;BME280;46464;51.154;13.812;2023-11-19T17:18:33;52460.50;;;-146.96;81.32
39105;BME280;46464;51.154;13.812;2023-11-19T17:21:00;52436.06;;;-146.96;81.45
39105;BME280;46464;51.154;13.812;2023-11-19T17:23:28;52417.75;;;-146.96;79.58
39105;BME280;46464;51.154;13.812;2023-11-19T17:25:54;52448.28;;;-146.96;78.37
39105;BME280;46464;51.154;13.812;2023-11-19T17:28:21;52448.28;;;-146.96;77.99
39105;BME280;46464;51.154;13.812;2023-11-19T17:30:48;52450.31;;;-146.96;77.87
39105;BME280;46464;51.154;13.812;2023-11-19T17:33:15;52427.94;;;-146.96;77.80
39105;BME280;46464;51.154;13.812;2023-11-19T17:35:43;52434.03;;;-146.96;78.37
39105;BME280;46464;51.154;13.812;2023-11-19T17:38:10;52452.34;;;-146.96;77.87
39105;BME280;46464;51.154;13.812;2023-11-19T17:40:39;52403.50;;;-146.96;76.68
39105;BME280;46464;51.154;13.812;2023-11-19T17:43:06;52403.50;;;-146.96;76.34
39105;BME280;46464;51.154;13.812;2023-11-19T17:45:33;52393.34;;;-146.96;75.91
39105;BME280;46464;51.154;13.812;2023-11-19T17:48:02;52423.88;;;-146.96;75.11
39105;BME280;46464;51.154;13.812;2023-11-19T17:50:29;52401.47;;;-146.96;75.16
39105;BME280;46464;51.154;13.812;2023-11-19T17:52:56;52419.78;;;-146.96;74.26
39105;BME280;46464;51.154;13.812;2023-11-19T17:55:22;52377.06;;;-146.96;74.33
39105;BME280;46464;51.154;13.812;2023-11-19T17:57:49;52425.91;;;-146.96;73.56
39105;BME280;46464;51.154;13.812;2023-11-19T18:00:17;52391.31;;;-146.96;73.36
39105;BME280;46464;51.154;13.812;2023-11-19T18:02:45;52411.66;;;-146.96;72.63
39105;BME280;46464;51.154;13.812;2023-11-19T18:05:15;52405.56;;;-146.96;73.45
39105;BME280;46464;51.154;13.812;2023-11-19T18:07:47;52407.59;;;-146.96;73.15
39105;BME280;46464;51.154;13.812;2023-11-19T18:10:14;52417.75;;;-146.96;72.48
39105;BME280;46464;51.154;13.812;2023-11-19T18:12:42;52397.41;;;-146.96;72.54
39105;BME280;46464;51.154;13.812;2023-11-19T18:15:09;52403.50;;;-146.96;71.67
39105;BME280;46464;51.154;13.812;2023-11-19T18:17:40;52383.16;;;-146.96;72.08
39105;BME280;46464;51.154;13.812;2023-11-19T18:20:11;52407.59;;;-146.96;70.66
39105;BME280;46464;51.154;13.812;2023-11-19T18:22:40;52385.19;;;-146.96;70.39
39105;BME280;46464;51.154;13.812;2023-11-19T18:25:07;52395.38;;;-146.96;69.82
39105;BME280;46464;51.154;13.812;2023-11-19T18:27:38;52407.59;;;-146.96;69.05
39105;BME280;46464;51.154;13.812;2023-11-19T18:30:05;52387.22;;;-146.96;68.39
39105;BME280;46464;51.154;13.812;2023-11-19T18:32:33;52375.03;;;-146.96;68.58
39105;BME280;46464;51.154;13.812;2023-11-19T18:34:59;52387.22;;;-146.96;68.12
39105;BME280;46464;51.154;13.812;2023-11-19T18:37:26;52397.41;;;-146.96;68.47
39105;BME280;46464;51.154;13.812;2023-11-19T18:39:53;52387.22;;;-146.96;68.63
39105;BME280;46464;51.154;13.812;2023-11-19T18:42:20;52373.00;;;-146.96;68.43
39105;BME280;46464;51.154;13.812;2023-11-19T18:44:46;52407.59;;;-146.96;68.36
39105;BME280;46464;51.154;13.812;2023-11-19T18:47:12;52375.03;;;-146.96;68.14
39105;BME280;46464;51.154;13.812;2023-11-19T18:49:40;52389.28;;;-146.96;68.19
39105;BME280;46464;51.154;13.812;2023-11-19T18:52:06;52360.78;;;-146.96;68.08
39105;BME280;46464;51.154;13.812;2023-11-19T18:54:34;52373.00;;;-146.96;68.20
39105;BME280;46464;51.154;13.812;2023-11-19T18:57:01;52391.31;;;-146.96;68.78
39105;BME280;46464;51.154;13.812;2023-11-19T18:59:30;52395.38;;;-146.96;68.63
39105;BME280;46464;51.154;13.812;2023-11-19T19:01:56;52387.22;;;-146.96;68.81
39105;BME280;46464;51.154;13.812;2023-11-19T19:04:23;52411.66;;;-146.96;69.10
39105;BME280;46464;51.154;13.812;2023-11-19T19:06:50;52413.69;;;-146.96;69.78
39105;BME280;46464;51.154;13.812;2023-11-19T19:09:18;52395.38;;;-146.96;69.96
39105;BME280;46464;51.154;13.812;2023-11-19T19:11:45;52411.66;;;-146.96;69.82
39105;BME280;46464;51.154;13.812;2023-11-19T19:14:12;52429.97;;;-146.96;70.42
39105;BME280;46464;51.154;13.812;2023-11-19T19:16:39;52395.38;;;-146.96;70.63
39105;BME280;46464;51.154;13.812;2023-11-19T19:19:06;52442.19;;;-146.96;70.64
39105;BME280;46464;51.154;13.812;2023-11-19T19:21:34;52395.38;;;-146.96;70.88
39105;BME280;46464;51.154;13.812;2023-11-19T19:24:00;52417.75;;;-146.96;70.31
39105;BME280;46464;51.154;13.812;2023-11-19T19:26:32;52429.97;;;-146.96;70.02
39105;BME280;46464;51.154;13.812;2023-11-19T19:28:58;52417.75;;;-146.96;69.95
39105;BME280;46464;51.154;13.812;2023-11-19T19:31:25;52379.09;;;-146.96;70.24
39105;BME280;46464;51.154;13.812;2023-11-19T19:33:53;52421.81;;;-146.96;69.55
39105;BME280;46464;51.154;13.812;2023-11-19T19:36:25;52387.22;;;-146.96;69.88
39105;BME280;46464;51.154;13.812;2023-11-19T19:38:54;52381.13;;;-146.96;69.80
39105;BME280;46464;51.154;13.812;2023-11-19T19:41:22;52411.66;;;-146.96;69.44
39105;BME280;46464;51.154;13.812;2023-11-19T19:43:49;52403.50;;;-146.96;69.22
39105;BME280;46464;51.154;13.812;2023-11-19T19:46:16;52399.44;;;-146.96;69.73
39105;BME280;46464;51.154;13.812;2023-11-19T19:48:43;52438.09;;;-146.96;69.14
39105;BME280;46464;51.154;13.812;2023-11-19T19:51:10;52366.88;;;-146.96;69.90
39105;BME280;46464;51.154;13.812;2023-11-19T19:53:37;52427.94;;;-146.96;69.39
39105;BME280;46464;51.154;13.812;2023-11-19T19:56:05;52393.34;;;-146.96;69.42
39105;BME280;46464;51.154;13.812;2023-11-19T19:58:34;52403.50;;;-146.96;69.33
39105;BME280;46464;51.154;13.812;2023-11-19T20:01:01;52411.66;;;-146.96;69.60
39105;BME280;46464;51.154;13.812;2023-11-19T20:03:29;52403.50;;;-146.96;69.98
39105;BME280;46464;51.154;13.812;2023-11-19T20:05:56;52397.41;;;-146.96;70.24
39105;BME280;46464;51.154;13.812;2023-11-19T20:08:24;52364.84;;;-146.96;70.78
39105;BME280;46464;51.154;13.812;2023-11-19T20:10:51;52407.59;;;-146.96;70.46
39105;BME280;46464;51.154;13.812;2023-11-19T20:13:19;52375.03;;;-146.96;70.23
39105;BME280;46464;51.154;13.812;2023-11-19T20:15:49;52381.13;;;-146.96;69.96
39105;BME280;46464;51.154;13.812;2023-11-19T20:18:19;52399.44;;;-146.96;70.07
39105;BME280;46464;51.154;13.812;2023-11-19T20:20:46;52415.72;;;-146.96;70.17
39105;BME280;46464;51.154;13.812;2023-11-19T20:23:14;52397.41;;;-146.96;70.40
39105;BME280;46464;51.154;13.812;2023-11-19T20:25:41;52399.44;;;-146.96;69.56
39105;BME280;46464;51.154;13.812;2023-11-19T20:28:08;52375.03;;;-146.96;70.44
39105;BME280;46464;51.154;13.812;2023-11-19T20:30:35;52411.66;;;-146.96;70.99
39105;BME280;46464;51.154;13.812;2023-11-19T20:33:02;52387.22;;;-146.96;70.89
39105;BME280;46464;51.154;13.812;2023-11-19T20:35:29;52377.06;;;-146.96;71.22
39105;BME280;46464;51.154;13.812;2023-11-19T20:37:56;52407.59;;;-146.96;71.01
39105;BME280;46464;51.154;13.812;2023-11-19T20:40:23;52366.88;;;-146.96;70.96
39105;BME280;46464;51.154;13.812;2023-11-19T20:42:49;52362.81;;;-146.96;70.97
39105;BME280;46464;51.154;13.812;2023-11-19T20:45:18;52415.72;;;-146.96;73.00
39105;BME280;46464;51.154;13.812;2023-11-19T20:47:48;52411.66;;;-146.96;73.71
39105;BME280;46464;51.154;13.812;2023-11-19T20:50:16;52427.94;;;-146.96;74.40
39105;BME280;46464;51.154;13.812;2023-11-19T20:52:43;52413.69;;;-146.96;75.08
39105;BME280;46464;51.154;13.812;2023-11-19T20:55:10;52419.78;;;-146.96;75.24
39105;BME280;46464;51.154;13.812;2023-11-19T20:57:39;52393.34;;;-146.96;75.33
39105;BME280;46464;51.154;13.812;2023-11-19T21:00:10;52421.81;;;-146.96;73.22
39105;BME280;46464;51.154;13.812;2023-11-19T21:02:39;52421.81;;;-146.96;74.48
39105;BME280;46464;51.154;13.812;2023-11-19T21:05:07;52395.38;;;-146.96;74.69
39105;BME280;46464;51.154;13.812;2023-11-19T21:07:33;52421.81;;;-146.96;75.47
39105;BME280;46464;51.154;13.812;2023-11-19T21:10:00;52444.22;;;-146.96;75.50
39105;BME280;46464;51.154;13.812;2023-11-19T21:12:27;52427.94;;;-146.96;76.17
39105;BME280;46464;51.154;13.812;2023-11-19T21:14:54;52407.59;;;-146.96;76.77
39105;BME280;46464;51.154;13.812;2023-11-19T21:17:21;52403.50;;;-146.96;77.67
39105;BME280;46464;51.154;13.812;2023-11-19T21:19:47;52417.75;;;-146.96;78.73
39105;BME280;46464;51.154;13.812;2023-11-19T21:22:14;52409.63;;;-146.96;79.50
39105;BME280;46464;51.154;13.812;2023-11-19T21:24:41;52399.44;;;-146.96;80.08
39105;BME280;46464;51.154;13.812;2023-11-19T21:27:10;52425.91;;;-146.96;80.47
39105;BME280;46464;51.154;13.812;2023-11-19T21:29:39;52440.13;;;-146.96;80.75
39105;BME280;46464;51.154;13.812;2023-11-19T21:32:06;52427.94;;;-146.96;81.40
39105;BME280;46464;51.154;13.812;2023-11-19T21:34:32;52446.25;;;-146.96;81.37
39105;BME280;46464;51.154;13.812;2023-11-19T21:37:02;52452.34;;;-146.96;81.43
39105;BME280;46464;51.154;13.812;2023-11-19T21:39:28;52446.25;;;-146.96;81.44
39105;BME280;46464;51.154;13.812;2023-11-19T21:41:55;52438.09;;;-146.96;82.38
39105;BME280;46464;51.154;13.812;2023-11-19T21:44:23;52458.44;;;-146.96;82.08
39105;BME280;46464;51.154;13.812;2023-11-19T21:46:50;52450.31;;;-146.96;82.38
39105;BME280;46464;51.154;13.812;2023-11-19T21:49:16;52472.69;;;-146.96;82.58
39105;BME280;46464;51.154;13.812;2023-11-19T21:51:43;52458.44;;;-146.96;82.74
39105;BME280;46464;51.154;13.812;2023-11-19T21:54:10;52427.94;;;-146.96;82.44
39105;BME280;46464;51.154;13.812;2023-11-19T21:56:37;52440.13;;;-146.96;82.68
39105;BME280;46464;51.154;13.812;2023-11-19T21:59:04;52456.41;;;-146.96;82.59
39105;BME280;46464;51.154;13.812;2023-11-19T22:01:31;52427.94;;;-146.96;82.27
39105;BME280;46464;51.154;13.812;2023-11-19T22:03:59;52452.34;;;-146.96;82.01
39105;BME280;46464;51.154;13.812;2023-11-19T22:06:26;52448.28;;;-146.96;82.05
39105;BME280;46464;51.154;13.812;2023-11-19T22:08:53;52434.03;;;-146.96;81.90
39105;BME280;46464;51.154;13.812;2023-11-19T22:11:20;52434.03;;;-146.96;81.67
39105;BME280;46464;51.154;13.812;2023-11-19T22:13:50;52460.50;;;-146.96;81.62
39105;BME280;46464;51.154;13.812;2023-11-19T22:16:17;52411.66;;;-146.96;81.53
39105;BME280;46464;51.154;13.812;2023-11-19T22:18:44;52448.28;;;-146.96;81.82
39105;BME280;46464;51.154;13.812;2023-11-19T22:21:11;52452.34;;;-146.96;81.86
39105;BME280;46464;51.154;13.812;2023-11-19T22:23:38;52413.69;;;-146.96;83.51
39105;BME280;46464;51.154;13.812;2023-11-19T22:26:05;52423.88;;;-146.96;86.55
39105;BME280;46464;51.154;13.812;2023-11-19T22:28:31;52458.44;;;-146.96;87.80
39105;BME280;46464;51.154;13.812;2023-11-19T22:31:00;52452.34;;;-146.96;88.84
39105;BME280;46464;51.154;13.812;2023-11-19T22:33:26;52486.94;;;-146.96;90.06
39105;BME280;46464;51.154;13.812;2023-11-19T22:35:55;52484.91;;;-146.96;90.80
39105;BME280;46464;51.154;13.812;2023-11-19T22:38:21;52446.25;;;-146.96;90.95
39105;BME280;46464;51.154;13.812;2023-11-19T22:40:49;52476.75;;;-146.96;91.44
39105;BME280;46464;51.154;13.812;2023-11-19T22:43:15;52423.88;;;-146.96;89.86
39105;BME280;46464;51.154;13.812;2023-11-19T22:45:42;52448.28;;;-146.96;89.30
39105;BME280;46464;51.154;13.812;2023-11-19T22:48:09;52440.13;;;-146.96;87.48
39105;BME280;46464;51.154;13.812;2023-11-19T22:50:36;52440.13;;;-146.96;86.91
39105;BME280;46464;51.154;13.812;2023-11-19T22:53:03;52438.09;;;-146.96;87.01
39105;BME280;46464;51.154;13.812;2023-11-19T22:55:31;52458.44;;;-146.96;88.95
39105;BME280;46464;51.154;13.812;2023-11-19T22:57:58;52482.88;;;-146.96;91.02
39105;BME280;46464;51.154;13.812;2023-11-19T23:00:26;52482.88;;;-146.96;91.56
39105;BME280;46464;51.154;13.812;2023-11-19T23:02:56;52468.63;;;-146.96;92.65
39105;BME280;46464;51.154;13.812;2023-11-19T23:05:24;52466.59;;;-146.96;91.78
39105;BME280;46464;51.154;13.812;2023-11-19T23:07:54;52468.63;;;-146.96;92.29
39105;BME280;46464;51.154;13.812;2023-11-19T23:10:21;52480.84;;;-146.96;91.86
39105;BME280;46464;51.154;13.812;2023-11-19T23:12:49;52423.88;;;-146.96;91.17
39105;BME280;46464;51.154;13.812;2023-11-19T23:15:17;52482.88;;;-146.96;90.97
39105;BME280;46464;51.154;13.812;2023-11-19T23:17:44;52427.94;;;-146.96;89.70
39105;BME280;46464;51.154;13.812;2023-11-19T23:20:12;52456.41;;;-146.96;90.08
39105;BME280;46464;51.154;13.812;2023-11-19T23:22:40;52454.38;;;-146.96;90.07
39105;BME280;46464;51.154;13.812;2023-11-19T23:25:07;52450.31;;;-146.96;89.35
39105;BME280;46464;51.154;13.812;2023-11-19T23:27:35;52460.50;;;-146.96;89.70
39105;BME280;46464;51.154;13.812;2023-11-19T23:30:02;52442.19;;;-146.96;88.46
39105;BME280;46464;51.154;13.812;2023-11-19T23:32:29;52458.44;;;-146.96;87.37
39105;BME280;46464;51.154;13.812;2023-11-19T23:34:56;52425.91;;;-146.96;86.81
39105;BME280;46464;51.154;13.812;2023-11-19T23:37:23;52405.56;;;-146.96;85.62
39105;BME280;46464;51.154;13.812;2023-11-19T23:39:51;52397.41;;;-146.96;85.53
39105;BME280;46464;51.154;13.812;2023-11-19T23:42:19;52448.28;;;-146.96;86.66
39105;BME280;46464;51.154;13.812;2023-11-19T23:44:48;52454.38;;;-146.96;87.15
39105;BME280;46464;51.154;13.812;2023-11-19T23:47:15;52466.59;;;-146.96;88.11
39105;BME280;46464;51.154;13.812;2023-11-19T23:49:42;52480.84;;;-146.96;88.65
39105;BME280;46464;51.154;13.812;2023-11-19T23:52:09;52456.41;;;-146.96;89.17
39105;BME280;46464;51.154;13.812;2023-11-19T23:54:36;52450.31;;;-146.96;88.87
39105;BME280;46464;51.154;13.812;2023-11-19T23:57:03;52476.75;;;-146.96;88.05
39105;BME280;46464;51.154;13.812;2023-11-19T23:59:30;52442.19;;;-146.96;87.50
